Aérodrome :
LOGIN :

S'inscrire | Disclaimer

   EN    FR    IT 

 










Légende :    VFR   VFR Marginal   IFR   IFR Intensif   IFR Très Intensif
Visi : 
Plafond : 
>= 8 km
>= 3000ft
5 à 8 km
1000 à 3000 ft
1500m à 5 km
500 à 1000 ft
800 à 1500m
200 à 500 ft
< 800m
< 200 ft
Symboles :   Orages  Brouillard  Fortes neiges  Fortes précipitations  Vent > 20 kt
SIGMETs :   Divers  Orages  Givrage  Turbulence  Onde Orograph.  Cendres Volcan.







- Altitude de l'aérodrome : 485 ft
- Code IATA : QSA


LELL - Sabadell

DERNIER METAR :
  • 261830Z 20003KT 160V280 9999 FEW030 22/13 Q1014

METARs EXPIRÉS :
  • 261800Z 26005KT 190V290 9999 FEW030 BKN060 22/12 Q1013
  • 261730Z 17004KT 120V230 9999 FEW030 BKN060 22/12 Q1014
  • 261700Z 24004KT 160V280 9999 FEW030 BKN060 22/12 Q1013
  • 261630Z 22008KT 190V250 9999 FEW030 BKN060 22/12 Q1014
  • 261600Z 20005KT 140V240 9999 FEW030 SCT060 22/12 Q1014

TAF TAF LELL
Valide du 26 à 15h jusqu'au 27 à 15h UTC


261400Z 2615/2715 VRB04KT 9999 SCT040 TX26/2713Z TN12/2706Z
PROB30
TEMPO 2615/2618 SHRA FEW040TCU
TEMPO 2615/2618 21007KT
BECMG 2710/2712 12009KT
Pas de NOTAMs connus pour ce terrain.
1 SIGMET publié pour la FIR Barcelona (LECB) :
 
Turbulence forte
LECB SIGMET 1 VALID 261900/262300 LEVA
LECB BARCELONA UIR SEV TURB OBS AT 1833Z E OF LINE N4207 E00401 - N3825 E00258 FL250/320 MOV SSW 10KT NC=



MET'MAP, la Météo Aéronautique d'un coup d'oeil ! - Copyright ORBIFLY Décembre 2007 - Disclaimer

ORBIFLY MET'MAP TEAM :

Programmation & Développement : Alexandra Zaïnal
Conception & Développement : Baudouin d'Aumeries
Co-Programmation & Développement : Marc-Olivier Méhu
Soutien technique & logistique : Manuel Goepfert

Contact : metmap@orbifly.com




SOURCES & CREDITS :

   NOAA